sensor_id;sensor_type;location;lat;lon;timestamp;P1;durP1;ratioP1;P2;durP2;ratioP2
65210;SDS011;51794;52.758;55.792;2022-11-04T00:01:15;20.23;;;9.95;;
65210;SDS011;51794;52.758;55.792;2022-11-04T00:03:59;21.83;;;9.70;;
65210;SDS011;51794;52.758;55.792;2022-11-04T00:06:43;17.50;;;8.98;;
65210;SDS011;51794;52.758;55.792;2022-11-04T00:09:29;23.58;;;10.05;;
65210;SDS011;51794;52.758;55.792;2022-11-04T00:12:13;18.52;;;9.45;;
65210;SDS011;51794;52.758;55.792;2022-11-04T00:15:09;15.77;;;8.77;;
65210;SDS011;51794;52.758;55.792;2022-11-04T00:18:12;11.55;;;6.53;;
65210;SDS011;51794;52.758;55.792;2022-11-04T00:20:56;13.07;;;7.60;;
65210;SDS011;51794;52.758;55.792;2022-11-04T00:23:59;10.40;;;6.63;;
65210;SDS011;51794;52.758;55.792;2022-11-04T00:27:02;11.32;;;6.88;;
65210;SDS011;51794;52.758;55.792;2022-11-04T00:30:06;10.38;;;5.70;;
65210;SDS011;51794;52.758;55.792;2022-11-04T00:32:51;12.23;;;6.93;;
65210;SDS011;51794;52.758;55.792;2022-11-04T00:35:55;12.93;;;7.30;;
65210;SDS011;51794;52.758;55.792;2022-11-04T00:38:39;12.55;;;6.90;;
65210;SDS011;51794;52.758;55.792;2022-11-04T00:41:23;13.00;;;6.80;;
65210;SDS011;51794;52.758;55.792;2022-11-04T00:44:11;13.20;;;6.63;;
65210;SDS011;51794;52.758;55.792;2022-11-04T00:46:55;15.52;;;7.88;;
65210;SDS011;51794;52.758;55.792;2022-11-04T00:49:39;14.77;;;7.65;;
65210;SDS011;51794;52.758;55.792;2022-11-04T00:52:23;16.20;;;8.40;;
65210;SDS011;51794;52.758;55.792;2022-11-04T00:55:08;15.63;;;7.97;;
65210;SDS011;51794;52.758;55.792;2022-11-04T00:57:52;15.57;;;7.85;;
65210;SDS011;51794;52.758;55.792;2022-11-04T01:00:37;18.60;;;8.00;;
65210;SDS011;51794;52.758;55.792;2022-11-04T01:03:21;27.75;;;10.63;;
65210;SDS011;51794;52.758;55.792;2022-11-04T01:06:05;24.08;;;10.20;;
65210;SDS011;51794;52.758;55.792;2022-11-04T01:08:53;29.63;;;10.93;;
65210;SDS011;51794;52.758;55.792;2022-11-04T01:11:38;30.02;;;9.95;;
65210;SDS011;51794;52.758;55.792;2022-11-04T01:14:22;41.83;;;10.50;;
65210;SDS011;51794;52.758;55.792;2022-11-04T01:17:07;80.82;;;14.35;;
65210;SDS011;51794;52.758;55.792;2022-11-04T01:19:51;23.85;;;8.48;;
65210;SDS011;51794;52.758;55.792;2022-11-04T01:22:36;63.50;;;12.18;;
65210;SDS011;51794;52.758;55.792;2022-11-04T01:25:20;39.67;;;10.85;;
65210;SDS011;51794;52.758;55.792;2022-11-04T01:28:04;43.83;;;12.35;;
65210;SDS011;51794;52.758;55.792;2022-11-04T01:30:48;41.88;;;12.07;;
65210;SDS011;51794;52.758;55.792;2022-11-04T01:33:32;65.65;;;14.30;;
65210;SDS011;51794;52.758;55.792;2022-11-04T01:36:16;55.90;;;13.68;;
65210;SDS011;51794;52.758;55.792;2022-11-04T01:39:00;45.05;;;12.55;;
65210;SDS011;51794;52.758;55.792;2022-11-04T01:41:44;59.25;;;14.57;;
65210;SDS011;51794;52.758;55.792;2022-11-04T01:47:27;71.68;;;16.02;;
65210;SDS011;51794;52.758;55.792;2022-11-04T01:50:21;45.45;;;12.98;;
65210;SDS011;51794;52.758;55.792;2022-11-04T01:53:06;39.70;;;13.10;;
65210;SDS011;51794;52.758;55.792;2022-11-04T01:55:56;37.08;;;12.88;;
65210;SDS011;51794;52.758;55.792;2022-11-04T01:58:44;35.40;;;12.95;;
65210;SDS011;51794;52.758;55.792;2022-11-04T02:01:29;43.50;;;15.15;;
65210;SDS011;51794;52.758;55.792;2022-11-04T02:04:13;43.72;;;14.57;;
65210;SDS011;51794;52.758;55.792;2022-11-04T02:07:10;44.53;;;14.73;;
65210;SDS011;51794;52.758;55.792;2022-11-04T02:09:55;39.20;;;14.75;;
65210;SDS011;51794;52.758;55.792;2022-11-04T02:12:39;39.30;;;13.75;;
65210;SDS011;51794;52.758;55.792;2022-11-04T02:35:46;38.83;;;11.00;;
65210;SDS011;51794;52.758;55.792;2022-11-04T02:41:23;65.90;;;13.52;;
65210;SDS011;51794;52.758;55.792;2022-11-04T02:44:13;47.90;;;11.52;;
65210;SDS011;51794;52.758;55.792;2022-11-04T02:47:02;58.33;;;13.70;;
65210;SDS011;51794;52.758;55.792;2022-11-04T02:49:52;51.00;;;12.18;;
65210;SDS011;51794;52.758;55.792;2022-11-04T02:52:40;144.02;;;18.05;;
65210;SDS011;51794;52.758;55.792;2022-11-04T02:55:29;45.83;;;11.93;;
65210;SDS011;51794;52.758;55.792;2022-11-04T02:58:17;54.38;;;11.43;;
65210;SDS011;51794;52.758;55.792;2022-11-04T03:01:04;56.35;;;11.65;;
65210;SDS011;51794;52.758;55.792;2022-11-04T03:03:50;55.30;;;11.85;;
65210;SDS011;51794;52.758;55.792;2022-11-04T03:06:36;38.70;;;10.20;;
65210;SDS011;51794;52.758;55.792;2022-11-04T03:09:20;63.00;;;11.68;;
65210;SDS011;51794;52.758;55.792;2022-11-04T03:12:10;50.25;;;12.68;;
65210;SDS011;51794;52.758;55.792;2022-11-04T03:15:00;81.82;;;19.58;;
65210;SDS011;51794;52.758;55.792;2022-11-04T03:20:31;33.55;;;11.25;;
65210;SDS011;51794;52.758;55.792;2022-11-04T03:23:16;63.13;;;11.68;;
65210;SDS011;51794;52.758;55.792;2022-11-04T03:26:06;47.97;;;11.20;;
65210;SDS011;51794;52.758;55.792;2022-11-04T03:28:58;29.10;;;10.20;;
65210;SDS011;51794;52.758;55.792;2022-11-04T03:32:04;65.32;;;16.48;;
65210;SDS011;51794;52.758;55.792;2022-11-04T03:34:50;46.65;;;12.77;;
65210;SDS011;51794;52.758;55.792;2022-11-04T03:37:34;31.98;;;13.90;;
65210;SDS011;51794;52.758;55.792;2022-11-04T03:40:18;41.65;;;11.65;;
65210;SDS011;51794;52.758;55.792;2022-11-04T03:43:10;26.20;;;10.57;;
65210;SDS011;51794;52.758;55.792;2022-11-04T03:45:57;50.90;;;11.25;;
65210;SDS011;51794;52.758;55.792;2022-11-04T03:48:41;37.00;;;13.18;;
65210;SDS011;51794;52.758;55.792;2022-11-04T03:51:27;22.38;;;8.13;;
65210;SDS011;51794;52.758;55.792;2022-11-04T03:54:12;36.13;;;9.20;;
65210;SDS011;51794;52.758;55.792;2022-11-04T03:57:06;30.05;;;9.13;;
65210;SDS011;51794;52.758;55.792;2022-11-04T04:00:03;41.88;;;9.48;;
65210;SDS011;51794;52.758;55.792;2022-11-04T04:05:50;28.30;;;9.82;;
65210;SDS011;51794;52.758;55.792;2022-11-04T04:11:38;19.20;;;8.30;;
65210;SDS011;51794;52.758;55.792;2022-11-04T04:14:31;21.08;;;9.07;;
65210;SDS011;51794;52.758;55.792;2022-11-04T04:17:31;21.83;;;8.80;;
65210;SDS011;51794;52.758;55.792;2022-11-04T04:20:18;19.02;;;8.30;;
65210;SDS011;51794;52.758;55.792;2022-11-04T04:23:04;19.08;;;8.30;;
65210;SDS011;51794;52.758;55.792;2022-11-04T04:26:09;19.60;;;8.63;;
65210;SDS011;51794;52.758;55.792;2022-11-04T04:29:13;20.10;;;7.95;;
65210;SDS011;51794;52.758;55.792;2022-11-04T04:31:58;18.23;;;7.13;;
65210;SDS011;51794;52.758;55.792;2022-11-04T04:34:43;15.75;;;7.05;;
65210;SDS011;51794;52.758;55.792;2022-11-04T04:37:27;13.30;;;6.80;;
65210;SDS011;51794;52.758;55.792;2022-11-04T04:40:13;17.85;;;7.47;;
65210;SDS011;51794;52.758;55.792;2022-11-04T04:43:17;16.83;;;7.95;;
65210;SDS011;51794;52.758;55.792;2022-11-04T04:46:20;18.17;;;8.68;;
65210;SDS011;51794;52.758;55.792;2022-11-04T04:49:07;12.85;;;6.90;;
65210;SDS011;51794;52.758;55.792;2022-11-04T04:51:52;15.05;;;8.70;;
65210;SDS011;51794;52.758;55.792;2022-11-04T04:54:36;10.90;;;6.05;;
65210;SDS011;51794;52.758;55.792;2022-11-04T04:57:20;9.75;;;5.63;;
65210;SDS011;51794;52.758;55.792;2022-11-04T05:00:05;9.55;;;5.50;;
65210;SDS011;51794;52.758;55.792;2022-11-04T05:02:50;8.50;;;5.50;;
65210;SDS011;51794;52.758;55.792;2022-11-04T05:05:35;9.82;;;5.25;;
65210;SDS011;51794;52.758;55.792;2022-11-04T05:08:19;7.95;;;4.63;;
65210;SDS011;51794;52.758;55.792;2022-11-04T05:11:02;8.25;;;5.18;;
65210;SDS011;51794;52.758;55.792;2022-11-04T05:13:47;9.77;;;5.32;;
65210;SDS011;51794;52.758;55.792;2022-11-04T05:16:31;11.07;;;5.80;;
65210;SDS011;51794;52.758;55.792;2022-11-04T05:19:15;11.98;;;6.18;;
65210;SDS011;51794;52.758;55.792;2022-11-04T05:22:00;10.95;;;5.88;;
65210;SDS011;51794;52.758;55.792;2022-11-04T05:24:44;7.68;;;4.95;;
65210;SDS011;51794;52.758;55.792;2022-11-04T05:27:27;8.25;;;4.78;;
65210;SDS011;51794;52.758;55.792;2022-11-04T05:30:11;11.15;;;5.60;;
65210;SDS011;51794;52.758;55.792;2022-11-04T05:32:55;8.88;;;5.20;;
65210;SDS011;51794;52.758;55.792;2022-11-04T05:35:40;9.77;;;6.40;;
65210;SDS011;51794;52.758;55.792;2022-11-04T05:38:24;8.45;;;5.43;;
65210;SDS011;51794;52.758;55.792;2022-11-04T05:41:09;7.82;;;4.85;;
65210;SDS011;51794;52.758;55.792;2022-11-04T05:43:55;7.97;;;5.10;;
65210;SDS011;51794;52.758;55.792;2022-11-04T05:46:39;9.38;;;5.25;;
65210;SDS011;51794;52.758;55.792;2022-11-04T05:49:26;15.50;;;6.40;;
65210;SDS011;51794;52.758;55.792;2022-11-04T05:52:19;11.20;;;5.53;;
65210;SDS011;51794;52.758;55.792;2022-11-04T05:55:03;11.20;;;5.00;;
65210;SDS011;51794;52.758;55.792;2022-11-04T05:57:48;7.70;;;4.50;;
65210;SDS011;51794;52.758;55.792;2022-11-04T06:00:32;8.80;;;4.97;;
65210;SDS011;51794;52.758;55.792;2022-11-04T06:03:19;7.97;;;4.93;;
65210;SDS011;51794;52.758;55.792;2022-11-04T06:06:04;8.45;;;4.85;;
65210;SDS011;51794;52.758;55.792;2022-11-04T06:08:48;7.38;;;4.55;;
65210;SDS011;51794;52.758;55.792;2022-11-04T06:11:33;6.63;;;4.20;;
65210;SDS011;51794;52.758;55.792;2022-11-04T06:14:18;6.50;;;4.10;;
65210;SDS011;51794;52.758;55.792;2022-11-04T06:17:02;5.55;;;4.03;;
65210;SDS011;51794;52.758;55.792;2022-11-04T06:19:47;6.00;;;3.92;;
65210;SDS011;51794;52.758;55.792;2022-11-04T06:22:32;6.97;;;4.53;;
65210;SDS011;51794;52.758;55.792;2022-11-04T06:25:16;5.97;;;4.18;;
65210;SDS011;51794;52.758;55.792;2022-11-04T06:28:00;7.30;;;5.25;;
65210;SDS011;51794;52.758;55.792;2022-11-04T06:30:45;6.90;;;4.43;;
65210;SDS011;51794;52.758;55.792;2022-11-04T06:33:29;8.38;;;5.15;;
65210;SDS011;51794;52.758;55.792;2022-11-04T06:36:14;8.50;;;5.35;;
65210;SDS011;51794;52.758;55.792;2022-11-04T06:38:58;7.68;;;4.57;;
65210;SDS011;51794;52.758;55.792;2022-11-04T06:41:43;8.93;;;5.38;;
65210;SDS011;51794;52.758;55.792;2022-11-04T06:44:27;7.65;;;4.90;;
65210;SDS011;51794;52.758;55.792;2022-11-04T06:47:11;6.45;;;4.30;;
65210;SDS011;51794;52.758;55.792;2022-11-04T06:49:55;5.90;;;3.80;;
65210;SDS011;51794;52.758;55.792;2022-11-04T06:52:39;6.30;;;4.00;;
65210;SDS011;51794;52.758;55.792;2022-11-04T06:55:23;4.68;;;3.38;;
65210;SDS011;51794;52.758;55.792;2022-11-04T06:58:08;4.30;;;3.13;;
65210;SDS011;51794;52.758;55.792;2022-11-04T07:00:53;5.72;;;4.28;;
65210;SDS011;51794;52.758;55.792;2022-11-04T07:03:37;5.05;;;3.08;;
65210;SDS011;51794;52.758;55.792;2022-11-04T07:06:21;4.07;;;2.72;;
65210;SDS011;51794;52.758;55.792;2022-11-04T07:09:06;4.22;;;3.05;;
65210;SDS011;51794;52.758;55.792;2022-11-04T07:11:50;5.40;;;3.75;;
65210;SDS011;51794;52.758;55.792;2022-11-04T07:14:34;4.95;;;3.58;;
65210;SDS011;51794;52.758;55.792;2022-11-04T07:17:18;4.82;;;3.55;;
65210;SDS011;51794;52.758;55.792;2022-11-04T07:20:05;5.22;;;3.50;;
65210;SDS011;51794;52.758;55.792;2022-11-04T07:22:52;4.63;;;3.10;;
65210;SDS011;51794;52.758;55.792;2022-11-04T07:25:36;5.20;;;3.83;;
65210;SDS011;51794;52.758;55.792;2022-11-04T07:28:20;5.22;;;3.80;;
65210;SDS011;51794;52.758;55.792;2022-11-04T07:31:05;5.07;;;3.70;;
65210;SDS011;51794;52.758;55.792;2022-11-04T07:33:49;7.88;;;4.25;;
65210;SDS011;51794;52.758;55.792;2022-11-04T07:36:33;7.82;;;4.10;;
65210;SDS011;51794;52.758;55.792;2022-11-04T07:39:17;6.15;;;4.35;;
65210;SDS011;51794;52.758;55.792;2022-11-04T07:42:01;7.15;;;4.72;;
65210;SDS011;51794;52.758;55.792;2022-11-04T07:44:46;7.47;;;4.40;;
65210;SDS011;51794;52.758;55.792;2022-11-04T07:47:30;8.10;;;4.50;;
65210;SDS011;51794;52.758;55.792;2022-11-04T07:50:14;6.68;;;4.30;;
65210;SDS011;51794;52.758;55.792;2022-11-04T07:52:59;7.13;;;4.35;;
65210;SDS011;51794;52.758;55.792;2022-11-04T07:55:44;8.82;;;5.18;;
65210;SDS011;51794;52.758;55.792;2022-11-04T07:58:32;5.70;;;3.63;;
65210;SDS011;51794;52.758;55.792;2022-11-04T08:01:18;12.55;;;6.97;;
65210;SDS011;51794;52.758;55.792;2022-11-04T08:04:02;5.43;;;3.95;;
65210;SDS011;51794;52.758;55.792;2022-11-04T08:06:47;6.60;;;4.22;;
65210;SDS011;51794;52.758;55.792;2022-11-04T08:09:32;6.25;;;4.32;;
65210;SDS011;51794;52.758;55.792;2022-11-04T08:12:16;7.32;;;5.07;;
65210;SDS011;51794;52.758;55.792;2022-11-04T08:15:00;7.93;;;4.90;;
65210;SDS011;51794;52.758;55.792;2022-11-04T08:17:45;6.43;;;4.53;;
65210;SDS011;51794;52.758;55.792;2022-11-04T08:20:29;6.40;;;4.85;;
65210;SDS011;51794;52.758;55.792;2022-11-04T08:23:13;6.85;;;4.43;;
65210;SDS011;51794;52.758;55.792;2022-11-04T08:25:57;6.68;;;4.45;;
65210;SDS011;51794;52.758;55.792;2022-11-04T08:28:41;6.30;;;4.25;;
65210;SDS011;51794;52.758;55.792;2022-11-04T08:31:26;5.95;;;4.18;;
65210;SDS011;51794;52.758;55.792;2022-11-04T08:34:11;5.82;;;4.28;;
65210;SDS011;51794;52.758;55.792;2022-11-04T08:36:57;6.68;;;4.60;;
65210;SDS011;51794;52.758;55.792;2022-11-04T08:39:43;5.70;;;4.00;;
65210;SDS011;51794;52.758;55.792;2022-11-04T08:42:28;6.07;;;4.70;;
65210;SDS011;51794;52.758;55.792;2022-11-04T08:45:12;6.78;;;4.90;;
65210;SDS011;51794;52.758;55.792;2022-11-04T08:47:56;6.30;;;4.78;;
65210;SDS011;51794;52.758;55.792;2022-11-04T08:50:40;6.57;;;4.60;;
65210;SDS011;51794;52.758;55.792;2022-11-04T08:53:24;6.05;;;4.22;;
65210;SDS011;51794;52.758;55.792;2022-11-04T08:56:28;6.05;;;4.50;;
65210;SDS011;51794;52.758;55.792;2022-11-04T08:59:12;6.40;;;4.75;;
65210;SDS011;51794;52.758;55.792;2022-11-04T09:01:57;5.55;;;4.00;;
65210;SDS011;51794;52.758;55.792;2022-11-04T09:04:41;7.25;;;5.00;;
65210;SDS011;51794;52.758;55.792;2022-11-04T09:07:25;7.65;;;5.35;;
65210;SDS011;51794;52.758;55.792;2022-11-04T09:10:09;7.10;;;5.15;;
65210;SDS011;51794;52.758;55.792;2022-11-04T09:12:54;5.93;;;4.15;;
65210;SDS011;51794;52.758;55.792;2022-11-04T09:15:39;7.80;;;5.00;;
65210;SDS011;51794;52.758;55.792;2022-11-04T09:18:23;5.28;;;3.95;;
65210;SDS011;51794;52.758;55.792;2022-11-04T09:21:07;5.97;;;4.75;;
65210;SDS011;51794;52.758;55.792;2022-11-04T09:23:52;8.25;;;4.93;;
65210;SDS011;51794;52.758;55.792;2022-11-04T09:26:36;7.13;;;5.30;;
65210;SDS011;51794;52.758;55.792;2022-11-04T09:29:20;8.05;;;5.57;;
65210;SDS011;51794;52.758;55.792;2022-11-04T09:32:04;9.77;;;6.93;;
65210;SDS011;51794;52.758;55.792;2022-11-04T09:34:48;9.73;;;5.47;;
65210;SDS011;51794;52.758;55.792;2022-11-04T09:37:32;10.15;;;5.75;;
65210;SDS011;51794;52.758;55.792;2022-11-04T09:40:19;8.90;;;5.13;;
65210;SDS011;51794;52.758;55.792;2022-11-04T09:43:08;7.65;;;5.68;;
65210;SDS011;51794;52.758;55.792;2022-11-04T09:45:57;9.45;;;6.13;;
65210;SDS011;51794;52.758;55.792;2022-11-04T09:48:44;7.07;;;5.22;;
65210;SDS011;51794;52.758;55.792;2022-11-04T09:51:30;6.53;;;5.30;;
65210;SDS011;51794;52.758;55.792;2022-11-04T09:54:15;5.57;;;4.80;;
65210;SDS011;51794;52.758;55.792;2022-11-04T09:57:01;7.38;;;6.00;;
65210;SDS011;51794;52.758;55.792;2022-11-04T09:59:46;7.82;;;5.82;;
65210;SDS011;51794;52.758;55.792;2022-11-04T10:16:56;5.63;;;4.18;;
65210;SDS011;51794;52.758;55.792;2022-11-04T10:19:53;5.80;;;4.53;;
65210;SDS011;51794;52.758;55.792;2022-11-04T10:23:04;7.50;;;5.13;;
65210;SDS011;51794;52.758;55.792;2022-11-04T10:25:56;9.40;;;5.70;;
65210;SDS011;51794;52.758;55.792;2022-11-04T10:28:48;7.32;;;5.80;;
65210;SDS011;51794;52.758;55.792;2022-11-04T10:31:36;7.07;;;5.32;;
65210;SDS011;51794;52.758;55.792;2022-11-04T10:37:35;7.90;;;5.68;;
65210;SDS011;51794;52.758;55.792;2022-11-04T10:40:37;9.38;;;6.10;;
65210;SDS011;51794;52.758;55.792;2022-11-04T10:43:33;8.30;;;5.50;;
65210;SDS011;51794;52.758;55.792;2022-11-04T10:52:14;7.45;;;5.53;;
65210;SDS011;51794;52.758;55.792;2022-11-04T10:54:58;7.63;;;5.60;;
65210;SDS011;51794;52.758;55.792;2022-11-04T10:57:42;6.13;;;4.88;;
65210;SDS011;51794;52.758;55.792;2022-11-04T11:00:33;8.93;;;5.63;;
65210;SDS011;51794;52.758;55.792;2022-11-04T11:03:22;9.07;;;6.05;;
65210;SDS011;51794;52.758;55.792;2022-11-04T11:06:18;13.00;;;6.68;;
65210;SDS011;51794;52.758;55.792;2022-11-04T11:10:03;12.02;;;7.40;;
65210;SDS011;51794;52.758;55.792;2022-11-04T11:15:09;12.32;;;7.25;;
65210;SDS011;51794;52.758;55.792;2022-11-04T11:21:02;10.75;;;7.10;;
65210;SDS011;51794;52.758;55.792;2022-11-04T11:23:47;14.60;;;8.20;;
65210;SDS011;51794;52.758;55.792;2022-11-04T11:26:33;17.73;;;8.68;;
65210;SDS011;51794;52.758;55.792;2022-11-04T11:29:18;14.55;;;7.30;;
65210;SDS011;51794;52.758;55.792;2022-11-04T11:32:04;10.68;;;6.18;;
65210;SDS011;51794;52.758;55.792;2022-11-04T11:34:49;7.50;;;5.53;;
65210;SDS011;51794;52.758;55.792;2022-11-04T11:37:33;9.55;;;5.80;;
65210;SDS011;51794;52.758;55.792;2022-11-04T11:40:24;9.95;;;6.43;;
65210;SDS011;51794;52.758;55.792;2022-11-04T11:43:17;9.52;;;6.60;;
65210;SDS011;51794;52.758;55.792;2022-11-04T11:46:04;11.63;;;7.63;;
65210;SDS011;51794;52.758;55.792;2022-11-04T11:48:53;10.50;;;7.20;;
65210;SDS011;51794;52.758;55.792;2022-11-04T11:51:37;9.52;;;7.10;;
65210;SDS011;51794;52.758;55.792;2022-11-04T11:54:26;9.25;;;6.78;;
65210;SDS011;51794;52.758;55.792;2022-11-04T11:57:30;9.30;;;6.72;;
65210;SDS011;51794;52.758;55.792;2022-11-04T12:00:16;7.88;;;5.65;;
65210;SDS011;51794;52.758;55.792;2022-11-04T12:03:12;14.70;;;9.25;;
65210;SDS011;51794;52.758;55.792;2022-11-04T12:08:48;11.65;;;8.20;;
65210;SDS011;51794;52.758;55.792;2022-11-04T12:11:39;10.32;;;7.57;;
65210;SDS011;51794;52.758;55.792;2022-11-04T12:20:02;9.00;;;6.22;;
65210;SDS011;51794;52.758;55.792;2022-11-04T12:26:01;10.70;;;6.67;;
65210;SDS011;51794;52.758;55.792;2022-11-04T12:31:36;12.88;;;8.18;;
65210;SDS011;51794;52.758;55.792;2022-11-04T12:37:19;15.30;;;8.48;;
65210;SDS011;51794;52.758;55.792;2022-11-04T12:40:50;11.20;;;7.32;;
65210;SDS011;51794;52.758;55.792;2022-11-04T12:51:48;13.40;;;8.23;;
65210;SDS011;51794;52.758;55.792;2022-11-04T13:00:07;10.48;;;7.18;;
65210;SDS011;51794;52.758;55.792;2022-11-04T13:02:59;10.38;;;6.65;;
65210;SDS011;51794;52.758;55.792;2022-11-04T13:05:50;8.65;;;6.40;;
65210;SDS011;51794;52.758;55.792;2022-11-04T13:08:41;8.82;;;6.35;;
65210;SDS011;51794;52.758;55.792;2022-11-04T13:14:28;8.88;;;6.18;;
65210;SDS011;51794;52.758;55.792;2022-11-04T13:17:19;8.23;;;5.75;;
65210;SDS011;51794;52.758;55.792;2022-11-04T13:22:58;9.70;;;7.20;;
65210;SDS011;51794;52.758;55.792;2022-11-04T13:25:44;9.93;;;6.88;;
65210;SDS011;51794;52.758;55.792;2022-11-04T13:28:28;9.05;;;6.68;;
65210;SDS011;51794;52.758;55.792;2022-11-04T13:31:48;10.65;;;7.13;;
65210;SDS011;51794;52.758;55.792;2022-11-04T13:34:33;7.80;;;5.93;;
65210;SDS011;51794;52.758;55.792;2022-11-04T13:40:12;11.00;;;7.60;;
65210;SDS011;51794;52.758;55.792;2022-11-04T13:43:01;9.45;;;6.60;;
65210;SDS011;51794;52.758;55.792;2022-11-04T13:48:53;9.65;;;7.25;;
65210;SDS011;51794;52.758;55.792;2022-11-04T13:51:41;8.65;;;6.18;;
65210;SDS011;51794;52.758;55.792;2022-11-04T13:57:11;9.27;;;6.43;;
65210;SDS011;51794;52.758;55.792;2022-11-04T14:02:57;8.60;;;6.53;;
65210;SDS011;51794;52.758;55.792;2022-11-04T14:05:43;10.57;;;7.10;;
65210;SDS011;51794;52.758;55.792;2022-11-04T14:08:28;9.90;;;6.85;;
65210;SDS011;51794;52.758;55.792;2022-11-04T14:11:13;9.63;;;6.20;;
65210;SDS011;51794;52.758;55.792;2022-11-04T14:14:01;9.25;;;6.28;;
65210;SDS011;51794;52.758;55.792;2022-11-04T14:16:45;8.32;;;5.82;;
65210;SDS011;51794;52.758;55.792;2022-11-04T14:22:30;8.90;;;5.97;;
65210;SDS011;51794;52.758;55.792;2022-11-04T14:25:21;10.93;;;6.53;;
65210;SDS011;51794;52.758;55.792;2022-11-04T14:30:54;11.38;;;7.10;;
65210;SDS011;51794;52.758;55.792;2022-11-04T14:36:25;9.85;;;6.32;;
65210;SDS011;51794;52.758;55.792;2022-11-04T14:41:56;10.55;;;6.85;;
65210;SDS011;51794;52.758;55.792;2022-11-04T14:47:25;13.02;;;6.88;;
65210;SDS011;51794;52.758;55.792;2022-11-04T14:50:14;17.63;;;9.90;;
65210;SDS011;51794;52.758;55.792;2022-11-04T14:53:00;15.73;;;9.30;;
65210;SDS011;51794;52.758;55.792;2022-11-04T14:55:46;13.85;;;7.63;;
65210;SDS011;51794;52.758;55.792;2022-11-04T14:58:30;9.52;;;6.70;;
65210;SDS011;51794;52.758;55.792;2022-11-04T15:01:15;7.00;;;5.18;;
65210;SDS011;51794;52.758;55.792;2022-11-04T15:04:03;8.73;;;5.43;;
65210;SDS011;51794;52.758;55.792;2022-11-04T15:07:01;8.15;;;5.30;;
65210;SDS011;51794;52.758;55.792;2022-11-04T15:09:47;6.80;;;4.60;;
65210;SDS011;51794;52.758;55.792;2022-11-04T15:12:31;6.10;;;4.57;;
65210;SDS011;51794;52.758;55.792;2022-11-04T15:15:37;5.97;;;4.30;;
65210;SDS011;51794;52.758;55.792;2022-11-04T15:18:24;7.25;;;4.28;;
65210;SDS011;51794;52.758;55.792;2022-11-04T15:21:13;5.32;;;3.97;;
65210;SDS011;51794;52.758;55.792;2022-11-04T15:23:57;7.20;;;4.75;;
65210;SDS011;51794;52.758;55.792;2022-11-04T15:26:42;6.75;;;4.93;;
65210;SDS011;51794;52.758;55.792;2022-11-04T15:29:26;7.57;;;4.72;;
65210;SDS011;51794;52.758;55.792;2022-11-04T15:32:14;14.68;;;7.68;;
65210;SDS011;51794;52.758;55.792;2022-11-04T15:34:59;18.65;;;9.18;;
65210;SDS011;51794;52.758;55.792;2022-11-04T15:37:43;23.90;;;11.55;;
65210;SDS011;51794;52.758;55.792;2022-11-04T15:40:28;25.38;;;11.73;;
65210;SDS011;51794;52.758;55.792;2022-11-04T15:43:13;22.40;;;10.55;;
65210;SDS011;51794;52.758;55.792;2022-11-04T15:45:58;19.30;;;10.25;;
65210;SDS011;51794;52.758;55.792;2022-11-04T15:48:45;14.43;;;7.47;;
65210;SDS011;51794;52.758;55.792;2022-11-04T15:51:42;15.98;;;7.75;;
65210;SDS011;51794;52.758;55.792;2022-11-04T15:54:30;7.03;;;4.65;;
65210;SDS011;51794;52.758;55.792;2022-11-04T15:57:20;6.40;;;4.23;;
65210;SDS011;51794;52.758;55.792;2022-11-04T16:00:08;5.90;;;3.45;;
65210;SDS011;51794;52.758;55.792;2022-11-04T16:02:56;8.85;;;5.03;;
65210;SDS011;51794;52.758;55.792;2022-11-04T16:05:41;7.30;;;4.90;;
65210;SDS011;51794;52.758;55.792;2022-11-04T16:08:27;7.57;;;5.00;;
65210;SDS011;51794;52.758;55.792;2022-11-04T16:11:16;8.13;;;5.55;;
65210;SDS011;51794;52.758;55.792;2022-11-04T16:14:13;7.65;;;5.85;;
65210;SDS011;51794;52.758;55.792;2022-11-04T16:16:57;6.78;;;4.88;;
65210;SDS011;51794;52.758;55.792;2022-11-04T16:19:44;7.93;;;5.80;;
65210;SDS011;51794;52.758;55.792;2022-11-04T16:22:33;8.15;;;5.38;;
65210;SDS011;51794;52.758;55.792;2022-11-04T16:25:20;7.88;;;5.20;;
65210;SDS011;51794;52.758;55.792;2022-11-04T16:28:06;7.47;;;5.60;;
65210;SDS011;51794;52.758;55.792;2022-11-04T16:31:00;8.05;;;5.75;;
65210;SDS011;51794;52.758;55.792;2022-11-04T16:33:45;8.07;;;5.00;;
65210;SDS011;51794;52.758;55.792;2022-11-04T16:36:29;6.72;;;4.50;;
65210;SDS011;51794;52.758;55.792;2022-11-04T16:39:12;8.38;;;4.57;;
65210;SDS011;51794;52.758;55.792;2022-11-04T16:41:57;6.95;;;4.95;;
65210;SDS011;51794;52.758;55.792;2022-11-04T16:44:51;6.35;;;3.97;;
65210;SDS011;51794;52.758;55.792;2022-11-04T16:47:38;5.65;;;4.03;;
65210;SDS011;51794;52.758;55.792;2022-11-04T16:50:23;5.63;;;3.70;;
65210;SDS011;51794;52.758;55.792;2022-11-04T16:53:07;6.43;;;4.00;;
65210;SDS011;51794;52.758;55.792;2022-11-04T16:55:51;6.55;;;4.38;;
65210;SDS011;51794;52.758;55.792;2022-11-04T16:58:36;6.75;;;4.30;;
65210;SDS011;51794;52.758;55.792;2022-11-04T17:01:20;7.32;;;4.65;;
65210;SDS011;51794;52.758;55.792;2022-11-04T17:04:07;5.43;;;3.47;;
65210;SDS011;51794;52.758;55.792;2022-11-04T17:06:52;4.85;;;3.28;;
65210;SDS011;51794;52.758;55.792;2022-11-04T17:09:35;7.25;;;3.80;;
65210;SDS011;51794;52.758;55.792;2022-11-04T17:12:19;10.73;;;4.90;;
65210;SDS011;51794;52.758;55.792;2022-11-04T17:15:03;7.00;;;4.32;;
65210;SDS011;51794;52.758;55.792;2022-11-04T17:17:48;5.20;;;3.38;;
65210;SDS011;51794;52.758;55.792;2022-11-04T17:20:33;4.15;;;3.05;;
65210;SDS011;51794;52.758;55.792;2022-11-04T17:23:17;5.32;;;3.40;;
65210;SDS011;51794;52.758;55.792;2022-11-04T17:26:02;4.60;;;2.90;;
65210;SDS011;51794;52.758;55.792;2022-11-04T17:28:47;6.05;;;3.88;;
65210;SDS011;51794;52.758;55.792;2022-11-04T17:31:31;5.82;;;3.53;;
65210;SDS011;51794;52.758;55.792;2022-11-04T17:34:15;3.95;;;3.13;;
65210;SDS011;51794;52.758;55.792;2022-11-04T17:37:00;3.70;;;2.75;;
65210;SDS011;51794;52.758;55.792;2022-11-04T17:39:44;3.47;;;2.70;;
65210;SDS011;51794;52.758;55.792;2022-11-04T17:42:29;4.32;;;2.40;;
65210;SDS011;51794;52.758;55.792;2022-11-04T17:45:32;3.22;;;2.22;;
65210;SDS011;51794;52.758;55.792;2022-11-04T17:48:16;2.33;;;2.13;;
65210;SDS011;51794;52.758;55.792;2022-11-04T17:51:00;3.75;;;2.53;;
65210;SDS011;51794;52.758;55.792;2022-11-04T17:53:45;3.40;;;2.70;;
65210;SDS011;51794;52.758;55.792;2022-11-04T17:56:29;6.50;;;3.15;;
65210;SDS011;51794;52.758;55.792;2022-11-04T17:59:14;4.13;;;2.85;;
65210;SDS011;51794;52.758;55.792;2022-11-04T18:01:58;3.33;;;2.50;;
65210;SDS011;51794;52.758;55.792;2022-11-04T18:04:43;4.55;;;2.60;;
65210;SDS011;51794;52.758;55.792;2022-11-04T18:07:28;2.92;;;2.30;;
65210;SDS011;51794;52.758;55.792;2022-11-04T18:10:12;3.25;;;2.60;;
65210;SDS011;51794;52.758;55.792;2022-11-04T18:12:56;3.55;;;2.50;;
65210;SDS011;51794;52.758;55.792;2022-11-04T18:15:40;4.50;;;2.97;;
65210;SDS011;51794;52.758;55.792;2022-11-04T18:18:24;4.10;;;2.67;;
65210;SDS011;51794;52.758;55.792;2022-11-04T18:21:08;3.63;;;2.53;;
65210;SDS011;51794;52.758;55.792;2022-11-04T18:23:54;2.35;;;1.83;;
65210;SDS011;51794;52.758;55.792;2022-11-04T18:26:38;2.88;;;1.83;;
65210;SDS011;51794;52.758;55.792;2022-11-04T18:29:23;2.28;;;1.77;;
65210;SDS011;51794;52.758;55.792;2022-11-04T18:32:06;2.25;;;1.70;;